createdAt,value
2019-04-28T00:01:51.299Z,38.88
2019-04-28T00:04:25.141Z,36.20
2019-04-28T00:07:01.847Z,35.88
2019-04-28T00:09:35.777Z,36.65
2019-04-28T00:12:10.987Z,40.88
2019-04-28T00:14:45.903Z,35.43
2019-04-28T00:17:21.107Z,35.35
2019-04-28T00:19:56.775Z,34.30
2019-04-28T00:22:41.916Z,38.17
2019-04-28T00:25:27.636Z,38.00
2019-04-28T00:28:01.679Z,39.05
2019-04-28T00:30:36.510Z,37.25
2019-04-28T00:33:16.474Z,41.75
2019-04-28T00:35:51.562Z,36.30
2019-04-28T00:38:25.307Z,41.37
2019-04-28T00:40:59.203Z,37.25
2019-04-28T00:43:33.900Z,39.15
2019-04-28T00:46:10.816Z,35.28
2019-04-28T00:48:45.275Z,39.45
2019-04-28T00:51:18.875Z,37.45
2019-04-28T00:53:52.765Z,42.62
2019-04-28T00:56:26.513Z,39.98
2019-04-28T00:59:01.619Z,39.30
2019-04-28T01:01:40.730Z,45.25
2019-04-28T01:04:15.239Z,41.08
2019-04-28T01:06:48.784Z,41.80
2019-04-28T01:09:22.803Z,39.50
2019-04-28T01:11:58.492Z,43.45
2019-04-28T01:14:32.511Z,40.58
2019-04-28T01:17:09.827Z,40.15
2019-04-28T01:19:46.954Z,44.58
2019-04-28T01:22:20.575Z,42.60
2019-04-28T01:24:54.186Z,45.25
2019-04-28T01:27:30.467Z,45.38
2019-04-28T01:30:09.155Z,44.55
2019-04-28T01:33:00.673Z,46.18
2019-04-28T01:35:34.596Z,48.63
2019-04-28T01:38:09.929Z,43.83
2019-04-28T01:40:43.454Z,40.60
2019-04-28T01:43:17.036Z,42.10
2019-04-28T01:45:50.662Z,40.50
2019-04-28T01:48:24.526Z,43.65
2019-04-28T01:50:59.781Z,43.68
2019-04-28T01:53:35.053Z,43.90
2019-04-28T01:56:10.494Z,47.25
2019-04-28T01:58:44.232Z,44.30
2019-04-28T02:01:17.831Z,42.40
2019-04-28T02:03:51.597Z,40.80
2019-04-28T02:06:25.559Z,45.10
2019-04-28T02:09:00.857Z,44.73
2019-04-28T02:11:36.364Z,48.38
2019-04-28T02:14:09.962Z,45.88
2019-04-28T02:16:43.894Z,48.38
2019-04-28T02:19:17.936Z,46.42
2019-04-28T02:21:53.225Z,42.90
2019-04-28T02:24:31.308Z,46.77
2019-04-28T02:27:06.117Z,47.93
2019-04-28T02:29:41.703Z,48.10
2019-04-28T02:32:15.715Z,46.48
2019-04-28T02:34:50.692Z,46.42
2019-04-28T02:37:25.533Z,50.45
2019-04-28T02:40:00.528Z,53.38
2019-04-28T02:42:34.704Z,50.92
2019-04-28T02:45:11.619Z,47.10
2019-04-28T02:47:44.822Z,48.17
2019-04-28T02:50:20.912Z,48.25
2019-04-28T02:52:55.334Z,46.08
2019-04-28T02:55:31.361Z,50.43
2019-04-28T02:58:04.337Z,53.70
2019-04-28T03:00:37.906Z,51.05
2019-04-28T03:03:11.519Z,47.58
2019-04-28T03:05:45.131Z,53.33
2019-04-28T03:08:21.252Z,50.95
2019-04-28T03:10:54.165Z,52.95
2019-04-28T03:13:30.900Z,50.00
2019-04-28T03:16:03.488Z,54.53
2019-04-28T03:18:41.054Z,53.02
2019-04-28T03:21:15.652Z,53.23
2019-04-28T03:23:51.655Z,53.78
2019-04-28T03:26:31.031Z,56.53
2019-04-28T03:29:24.874Z,55.88
2019-04-28T03:32:31.095Z,51.20
2019-04-28T03:34:53.937Z,55.60
2019-04-28T03:37:24.799Z,54.85
2019-04-28T03:40:00.536Z,52.38
2019-04-28T03:42:34.350Z,55.10
2019-04-28T03:45:11.268Z,59.42
2019-04-28T03:47:44.803Z,54.27
2019-04-28T03:50:20.181Z,51.13
2019-04-28T03:52:55.092Z,49.35
2019-04-28T03:55:31.697Z,53.60
2019-04-28T03:58:03.984Z,49.40
2019-04-28T04:00:40.638Z,48.83
2019-04-28T04:03:13.414Z,49.75
2019-04-28T04:05:47.014Z,51.75
2019-04-28T04:08:21.412Z,50.90
2019-04-28T04:11:05.786Z,52.55
2019-04-28T04:13:44.068Z,42.83
2019-04-28T04:16:35.527Z,54.00
2019-04-28T04:19:10.826Z,66.57
2019-04-28T04:21:44.290Z,51.80
2019-04-28T04:24:20.367Z,60.30
2019-04-28T04:26:53.329Z,52.65
2019-04-28T04:29:26.957Z,59.27
2019-04-28T04:32:13.446Z,55.10
2019-04-28T04:34:35.834Z,53.15
2019-04-28T04:37:10.425Z,78.83
2019-04-28T04:39:44.785Z,64.12
2019-04-28T04:42:20.432Z,53.50
2019-04-28T04:44:53.872Z,57.03
2019-04-28T04:47:32.183Z,54.27
2019-04-28T04:50:05.214Z,44.65
2019-04-28T04:52:40.278Z,51.05
2019-04-28T04:55:14.905Z,50.05
2019-04-28T04:57:50.617Z,54.98
2019-04-28T05:00:25.393Z,49.20
2019-04-28T05:03:00.901Z,52.43
2019-04-28T05:05:40.368Z,52.15
2019-04-28T05:08:15.587Z,53.87
2019-04-28T05:10:50.608Z,49.42
2019-04-28T05:13:24.892Z,47.35
2019-04-28T05:15:59.842Z,47.23
2019-04-28T05:18:33.763Z,44.38
2019-04-28T05:21:07.383Z,48.15
2019-04-28T05:23:42.608Z,52.23
2019-04-28T05:26:16.582Z,46.15
2019-04-28T05:28:54.151Z,44.95
2019-04-28T05:31:29.427Z,45.78
2019-04-28T05:34:08.130Z,41.58
2019-04-28T05:36:44.512Z,38.67
2019-04-28T05:39:19.462Z,44.30
2019-04-28T05:41:53.823Z,39.55
2019-04-28T05:44:27.441Z,41.98
2019-04-28T05:47:01.163Z,43.60
2019-04-28T05:49:51.479Z,43.68
2019-04-28T05:52:30.005Z,41.65
2019-04-28T05:55:12.512Z,42.83
2019-04-28T05:57:51.544Z,40.03
2019-04-28T06:00:42.457Z,39.67
2019-04-28T06:03:17.731Z,43.73
2019-04-28T06:05:52.446Z,40.85
2019-04-28T06:08:40.772Z,38.83
2019-04-28T06:11:31.064Z,38.25
2019-04-28T06:14:05.474Z,35.15
2019-04-28T06:16:40.614Z,39.08
2019-04-28T06:19:15.524Z,41.55
2019-04-28T06:21:49.504Z,41.88
2019-04-28T06:24:23.155Z,38.63
2019-04-28T06:26:58.462Z,39.50
2019-04-28T06:29:33.741Z,35.13
2019-04-28T06:32:07.337Z,37.98
2019-04-28T06:34:41.337Z,35.75
2019-04-28T06:37:15.183Z,43.30
2019-04-28T06:39:49.204Z,35.45
2019-04-28T06:42:25.002Z,44.98
2019-04-28T06:44:58.937Z,42.83
2019-04-28T06:47:32.929Z,47.93
2019-04-28T06:50:07.583Z,42.23
2019-04-28T06:52:42.185Z,54.05
2019-04-28T06:55:16.583Z,50.63
2019-04-28T06:57:50.524Z,44.90
2019-04-28T07:00:24.479Z,43.17
2019-04-28T07:02:58.162Z,40.03
2019-04-28T07:05:32.163Z,45.58
2019-04-28T07:08:05.971Z,44.48
2019-04-28T07:10:39.992Z,41.98
2019-04-28T07:13:14.717Z,44.03
2019-04-28T07:15:48.583Z,40.67
2019-04-28T07:18:22.568Z,45.10
2019-04-28T07:21:03.774Z,46.23
2019-04-28T07:23:39.230Z,45.88
2019-04-28T07:26:13.813Z,45.65
2019-04-28T07:28:47.411Z,42.43
2019-04-28T07:31:23.323Z,36.13
2019-04-28T07:33:57.343Z,43.42
2019-04-28T07:36:31.367Z,39.18
2019-04-28T07:39:07.263Z,39.80
2019-04-28T07:41:41.613Z,40.50
2019-04-28T07:44:15.451Z,44.27
2019-04-28T07:46:49.072Z,44.05
2019-04-28T07:49:23.745Z,41.90
2019-04-28T07:52:09.145Z,36.90
2019-04-28T07:54:42.599Z,40.95
2019-04-28T07:57:18.015Z,46.25
2019-04-28T07:59:51.932Z,47.27
2019-04-28T08:02:25.770Z,44.15
2019-04-28T08:04:59.784Z,48.08
2019-04-28T08:07:33.590Z,25.48
2019-04-28T08:10:07.508Z,44.38
2019-04-28T08:12:41.649Z,48.05
2019-04-28T08:15:20.079Z,46.42
2019-04-28T08:17:53.615Z,42.10
2019-04-28T08:20:27.494Z,47.75
2019-04-28T08:23:02.174Z,44.80
2019-04-28T08:25:35.913Z,45.63
2019-04-28T08:28:10.893Z,48.00
2019-04-28T08:30:44.634Z,38.42
2019-04-28T08:33:35.167Z,43.20
2019-04-28T08:36:09.086Z,29.12
2019-04-28T08:38:43.063Z,44.50
2019-04-28T08:41:18.454Z,43.58
2019-04-28T08:43:52.104Z,44.75
2019-04-28T08:46:25.942Z,50.70
2019-04-28T08:48:59.628Z,48.75
2019-04-28T08:51:33.959Z,49.13
2019-04-28T08:54:08.934Z,47.25
2019-04-28T08:56:42.718Z,49.40
2019-04-28T08:59:16.491Z,46.68
2019-04-28T09:01:50.242Z,45.67
2019-04-28T09:04:24.381Z,47.83
2019-04-28T09:06:57.911Z,43.85
2019-04-28T09:09:31.961Z,38.33
2019-04-28T09:12:07.943Z,44.45
2019-04-28T09:14:42.031Z,51.00
2019-04-28T09:17:16.165Z,49.95
2019-04-28T09:19:50.088Z,51.73
2019-04-28T09:22:23.902Z,53.40
2019-04-28T09:24:57.594Z,53.50
2019-04-28T09:27:31.403Z,52.90
2019-04-28T09:30:08.443Z,38.45
2019-04-28T09:32:45.523Z,46.85
2019-04-28T09:35:19.168Z,63.60
2019-04-28T09:37:53.232Z,60.25
2019-04-28T09:40:27.157Z,29.32
2019-04-28T09:43:11.934Z,49.90
2019-04-28T09:45:47.462Z,49.60
2019-04-28T09:48:21.452Z,51.68
2019-04-28T09:50:55.272Z,50.35
2019-04-28T09:53:28.931Z,48.17
2019-04-28T09:56:04.724Z,48.05
2019-04-28T09:58:38.989Z,51.98
2019-04-28T10:01:12.792Z,57.40
2019-04-28T10:03:47.292Z,48.25
2019-04-28T10:06:21.341Z,41.30
2019-04-28T10:08:55.541Z,43.73
2019-04-28T10:11:30.626Z,41.73
2019-04-28T10:14:06.766Z,42.10
2019-04-28T10:16:42.211Z,41.58
2019-04-28T10:19:20.428Z,32.35
2019-04-28T10:21:57.740Z,40.33
2019-04-28T10:24:31.789Z,30.00
2019-04-28T10:27:07.053Z,43.35
2019-04-28T10:29:41.144Z,47.10
2019-04-28T10:32:14.918Z,46.55
2019-04-28T10:34:54.957Z,55.03
2019-04-28T10:37:24.414Z,33.35
2019-04-28T10:40:00.494Z,51.70
2019-04-28T10:42:34.972Z,48.73
2019-04-28T10:45:10.902Z,56.10
2019-04-28T10:47:47.399Z,49.90
2019-04-28T10:50:23.205Z,44.03
2019-04-28T10:52:57.786Z,47.03
2019-04-28T10:55:32.734Z,51.37
2019-04-28T10:58:11.060Z,38.02
2019-04-28T11:00:45.116Z,52.10
2019-04-28T11:03:19.112Z,49.27
2019-04-28T11:05:54.405Z,52.62
2019-04-28T11:08:46.475Z,49.93
2019-04-28T11:11:22.340Z,50.50
2019-04-28T11:13:58.152Z,51.75
2019-04-28T11:16:34.271Z,61.42
2019-04-28T11:19:08.883Z,53.55
2019-04-28T11:21:42.743Z,50.00
2019-04-28T11:24:16.482Z,57.27
2019-04-28T11:26:50.133Z,55.67
2019-04-28T11:29:24.973Z,61.23
2019-04-28T11:31:58.832Z,61.40
2019-04-28T11:34:40.550Z,64.82
2019-04-28T11:37:14.867Z,57.03
2019-04-28T11:39:48.683Z,72.05
2019-04-28T11:42:24.256Z,56.50
2019-04-28T11:45:02.969Z,59.40
2019-04-28T11:47:37.672Z,60.70
2019-04-28T11:50:12.084Z,59.88
2019-04-28T11:52:46.039Z,63.48
2019-04-28T11:55:19.976Z,67.05
2019-04-28T11:57:53.831Z,57.43
2019-04-28T12:00:35.344Z,49.15
2019-04-28T12:03:09.526Z,60.33
2019-04-28T12:05:44.804Z,66.05
2019-04-28T12:08:19.430Z,61.85
2019-04-28T12:10:54.609Z,63.23
2019-04-28T12:13:40.290Z,71.07
2019-04-28T12:16:31.706Z,65.75
2019-04-28T12:19:10.110Z,69.07
2019-04-28T12:21:46.616Z,50.90
2019-04-28T12:24:20.809Z,63.35
2019-04-28T12:26:54.679Z,62.10
2019-04-28T12:29:28.471Z,57.38
2019-04-28T12:32:02.074Z,60.75
2019-04-28T12:34:39.368Z,61.18
2019-04-28T12:37:13.395Z,62.05
2019-04-28T12:39:47.038Z,55.30
2019-04-28T12:42:20.695Z,52.67
2019-04-28T12:44:56.942Z,51.60
2019-04-28T12:47:30.853Z,53.55
2019-04-28T12:50:26.412Z,59.00
2019-04-28T12:53:00.482Z,52.60
2019-04-28T12:55:34.386Z,54.85
2019-04-28T12:58:09.146Z,53.87
2019-04-28T13:00:53.520Z,52.20
2019-04-28T13:03:35.688Z,55.30
2019-04-28T13:06:21.201Z,53.73
2019-04-28T13:08:54.894Z,54.67
2019-04-28T13:11:34.184Z,52.43
2019-04-28T13:14:07.905Z,50.88
2019-04-28T13:16:41.826Z,52.05
2019-04-28T13:19:15.394Z,48.20
2019-04-28T13:21:49.327Z,49.10
2019-04-28T13:24:22.945Z,56.65
2019-04-28T13:26:56.955Z,47.78
2019-04-28T13:29:30.467Z,44.23
2019-04-28T13:32:04.983Z,51.58
2019-04-28T13:34:40.497Z,54.38
2019-04-28T13:37:15.184Z,48.63
2019-04-28T13:39:56.022Z,53.13
2019-04-28T13:42:31.727Z,42.03
2019-04-28T13:45:10.676Z,48.95
2019-04-28T13:47:45.691Z,50.12
2019-04-28T13:50:28.325Z,45.05
2019-04-28T13:53:08.558Z,45.45
2019-04-28T13:55:44.990Z,44.60
2019-04-28T13:58:39.998Z,49.08
2019-04-28T14:01:10.833Z,44.25
2019-04-28T14:03:53.713Z,41.05
2019-04-28T14:06:47.792Z,39.75
2019-04-28T14:09:22.112Z,44.67
2019-04-28T14:11:57.148Z,46.05
2019-04-28T14:14:30.802Z,44.75
2019-04-28T14:17:05.409Z,38.70
2019-04-28T14:19:41.635Z,47.10
2019-04-28T14:22:16.866Z,47.50
2019-04-28T14:24:52.315Z,52.05
2019-04-28T14:27:27.979Z,50.35
2019-04-28T14:30:06.435Z,44.30
2019-04-28T14:32:41.745Z,62.40
2019-04-28T14:35:16.947Z,43.70
2019-04-28T14:37:52.304Z,51.33
2019-04-28T14:40:26.143Z,45.30
2019-04-28T14:42:59.969Z,44.65
2019-04-28T14:45:35.258Z,41.08
2019-04-28T14:48:16.569Z,51.98
2019-04-28T14:50:55.093Z,52.43
2019-04-28T14:53:30.409Z,40.12
2019-04-28T14:56:07.314Z,37.15
2019-04-28T14:58:41.212Z,37.85
2019-04-28T15:01:16.493Z,38.80
2019-04-28T15:03:56.317Z,39.67
2019-04-28T15:06:37.053Z,39.40
2019-04-28T15:09:13.041Z,43.10
2019-04-28T15:11:48.673Z,44.75
2019-04-28T15:14:22.427Z,40.05
2019-04-28T15:17:09.380Z,49.85
2019-04-28T15:19:46.492Z,48.52
2019-04-28T15:22:20.515Z,48.08
2019-04-28T15:24:54.994Z,51.50
2019-04-28T15:27:28.676Z,47.93
2019-04-28T15:30:02.411Z,47.45
2019-04-28T15:32:39.835Z,49.18
2019-04-28T15:35:15.426Z,46.50
2019-04-28T15:37:49.203Z,53.92
2019-04-28T15:40:22.828Z,61.55
2019-04-28T15:42:56.331Z,50.90
2019-04-28T15:45:48.280Z,43.02
2019-04-28T15:48:22.073Z,42.27
2019-04-28T15:50:56.683Z,36.98
2019-04-28T15:53:30.735Z,42.35
2019-04-28T15:56:15.147Z,40.65
2019-04-28T15:58:49.030Z,50.28
2019-04-28T16:01:22.972Z,61.70
2019-04-28T16:03:56.836Z,62.45
2019-04-28T16:06:30.593Z,80.22
2019-04-28T16:09:10.008Z,122.67
2019-04-28T16:11:43.744Z,131.20
2019-04-28T16:14:18.445Z,62.80
2019-04-28T16:16:52.354Z,53.83
2019-04-28T16:19:26.191Z,58.78
2019-04-28T16:22:01.204Z,48.87
2019-04-28T16:24:34.795Z,38.10
2019-04-28T16:27:10.223Z,37.73
2019-04-28T16:29:44.840Z,39.65
2019-04-28T16:32:18.757Z,35.10
2019-04-28T16:34:52.664Z,33.67
2019-04-28T16:37:38.136Z,36.08
2019-04-28T16:40:06.473Z,30.52
2019-04-28T16:42:44.456Z,29.18
2019-04-28T16:45:23.896Z,35.08
2019-04-28T16:47:57.844Z,32.08
2019-04-28T16:50:31.638Z,30.77
2019-04-28T16:53:09.606Z,28.50
2019-04-28T16:55:43.892Z,34.85
2019-04-28T16:58:25.462Z,35.13
2019-04-28T17:00:59.312Z,31.12
2019-04-28T17:03:34.703Z,36.60
2019-04-28T17:06:09.274Z,34.75
2019-04-28T17:08:44.609Z,28.95
2019-04-28T17:11:19.553Z,36.10
2019-04-28T17:13:53.451Z,30.50
2019-04-28T17:16:27.350Z,28.70
2019-04-28T17:19:01.163Z,31.07
2019-04-28T17:21:34.827Z,34.33
2019-04-28T17:24:12.036Z,26.20
2019-04-28T17:26:45.552Z,22.17
2019-04-28T17:29:19.247Z,23.00
2019-04-28T17:31:52.930Z,22.17
2019-04-28T17:34:27.462Z,23.32
2019-04-28T17:37:01.054Z,21.97
2019-04-28T17:39:35.146Z,18.42
2019-04-28T17:42:10.462Z,15.85
2019-04-28T17:44:44.078Z,16.23
2019-04-28T17:47:19.220Z,21.27
2019-04-28T17:49:52.825Z,16.60
2019-04-28T17:52:27.366Z,17.07
2019-04-28T17:55:00.908Z,22.48
2019-04-28T17:57:35.670Z,18.75
2019-04-28T18:00:11.147Z,21.25
2019-04-28T18:02:55.472Z,22.50
2019-04-28T18:05:39.272Z,25.10
2019-04-28T18:08:20.802Z,19.73
2019-04-28T18:10:49.167Z,24.80
2019-04-28T18:13:23.009Z,57.00
2019-04-28T18:16:14.309Z,27.32
2019-04-28T18:18:58.417Z,25.97
2019-04-28T18:21:32.018Z,28.65
2019-04-28T18:24:05.619Z,29.75
2019-04-28T18:26:39.505Z,30.62
2019-04-28T18:29:17.132Z,34.35
2019-04-28T18:31:52.286Z,33.28
2019-04-28T18:34:25.553Z,37.05
2019-04-28T18:37:09.434Z,32.88
2019-04-28T18:40:00.648Z,35.33
2019-04-28T18:42:37.657Z,31.75
2019-04-28T18:45:12.114Z,35.23
2019-04-28T18:47:48.450Z,33.80
2019-04-28T18:50:22.021Z,36.20
2019-04-28T18:52:58.632Z,39.63
2019-04-28T18:55:32.234Z,47.80
2019-04-28T18:58:05.952Z,46.23
2019-04-28T19:00:42.044Z,42.55
2019-04-28T19:03:15.664Z,35.15
2019-04-28T19:05:50.776Z,42.55
2019-04-28T19:08:48.881Z,43.50
2019-04-28T19:11:17.902Z,47.95
2019-04-28T19:13:56.190Z,50.28
2019-04-28T19:16:34.163Z,53.25
2019-04-28T19:19:18.290Z,47.25
2019-04-28T19:21:57.951Z,47.85
2019-04-28T19:24:31.633Z,50.15
2019-04-28T19:27:05.429Z,44.48
2019-04-28T19:29:38.991Z,46.28
2019-04-28T19:32:12.599Z,38.60
2019-04-28T19:34:46.254Z,41.80
2019-04-28T19:37:19.826Z,53.28
2019-04-28T19:39:54.546Z,47.00
2019-04-28T19:42:28.108Z,98.03
2019-04-28T19:45:01.756Z,61.13
2019-04-28T19:47:36.920Z,82.67
2019-04-28T19:50:11.947Z,65.70
2019-04-28T19:52:45.532Z,53.55
2019-04-28T19:55:20.922Z,57.45
2019-04-28T19:58:11.222Z,55.05
2019-04-28T20:00:49.499Z,45.43
2019-04-28T20:03:23.100Z,36.90
2019-04-28T20:05:56.751Z,43.68
2019-04-28T20:08:30.242Z,61.45
2019-04-28T20:11:03.837Z,34.13
2019-04-28T20:13:39.061Z,61.10
2019-04-28T20:16:12.713Z,34.10
2019-04-28T20:18:49.009Z,43.92
2019-04-28T20:21:22.896Z,34.10
2019-04-28T20:23:56.547Z,29.23
2019-04-28T20:26:31.635Z,33.78
2019-04-28T20:29:05.532Z,32.85
2019-04-28T20:31:40.663Z,26.90
2019-04-28T20:34:14.242Z,26.90
2019-04-28T20:37:07.567Z,33.85
2019-04-28T20:39:43.101Z,30.45
2019-04-28T20:42:30.348Z,30.35
2019-04-28T20:45:04.489Z,33.28
2019-04-28T20:47:38.262Z,29.27
2019-04-28T20:50:12.209Z,26.85
2019-04-28T20:52:45.741Z,27.58
2019-04-28T20:55:19.742Z,33.50
2019-04-28T20:57:53.383Z,30.50
2019-04-28T21:00:27.165Z,27.87
2019-04-28T21:03:00.703Z,26.55
2019-04-28T21:05:34.372Z,30.92
2019-04-28T21:08:07.970Z,30.02
2019-04-28T21:10:41.786Z,28.67
2019-04-28T21:13:15.360Z,28.55
2019-04-28T21:15:49.080Z,29.82
2019-04-28T21:18:22.947Z,28.07
2019-04-28T21:20:56.561Z,22.10
2019-04-28T21:23:30.116Z,25.45
2019-04-28T21:26:04.695Z,20.25
2019-04-28T21:28:38.615Z,21.50
2019-04-28T21:31:12.293Z,21.35
2019-04-28T21:33:45.865Z,19.50
2019-04-28T21:36:19.446Z,20.25
2019-04-28T21:38:53.065Z,22.30
2019-04-28T21:41:26.653Z,19.57
2019-04-28T21:44:01.863Z,19.57
2019-04-28T21:46:43.102Z,23.12
2019-04-28T21:49:18.304Z,23.18
2019-04-28T21:51:53.295Z,25.17
2019-04-28T21:54:26.892Z,23.57
2019-04-28T21:57:00.514Z,22.62
2019-04-28T21:59:34.234Z,23.85
2019-04-28T22:02:07.897Z,23.98
2019-04-28T22:04:41.343Z,20.23
2019-04-28T22:07:14.988Z,22.90
2019-04-28T22:09:49.621Z,20.45
2019-04-28T22:12:23.317Z,21.65
2019-04-28T22:14:56.913Z,19.42
2019-04-28T22:17:30.557Z,19.92
2019-04-28T22:20:05.454Z,20.23
2019-04-28T22:22:39.452Z,15.98
2019-04-28T22:25:26.212Z,22.75
2019-04-28T22:27:59.831Z,20.45
2019-04-28T22:30:33.415Z,19.80
2019-04-28T22:33:07.061Z,17.95
2019-04-28T22:35:40.990Z,19.05
2019-04-28T22:38:14.583Z,18.02
2019-04-28T22:40:48.282Z,18.52
2019-04-28T22:43:21.952Z,18.25
2019-04-28T22:45:55.449Z,19.02
2019-04-28T22:48:30.203Z,21.55
2019-04-28T22:51:04.760Z,19.50
2019-04-28T22:53:38.354Z,19.90
2019-04-28T22:56:23.968Z,18.40
2019-04-28T22:59:14.343Z,17.07
2019-04-28T23:02:07.928Z,18.07
2019-04-28T23:04:44.291Z,16.75
2019-04-28T23:07:17.946Z,16.07
2019-04-28T23:09:52.453Z,16.12
2019-04-28T23:12:26.017Z,15.88
2019-04-28T23:15:01.724Z,11.28
2019-04-28T23:17:35.609Z,11.97
2019-04-28T23:20:13.806Z,11.18
2019-04-28T23:22:49.954Z,10.80
2019-04-28T23:25:24.655Z,12.25
2019-04-28T23:27:58.244Z,11.03
2019-04-28T23:30:39.188Z,11.12
2019-04-28T23:33:12.901Z,9.08
2019-04-28T23:35:50.688Z,8.13
2019-04-28T23:38:24.235Z,9.45
2019-04-28T23:40:59.384Z,9.30
2019-04-28T23:43:32.944Z,8.70
2019-04-28T23:46:13.823Z,8.10
2019-04-28T23:48:47.423Z,8.98
2019-04-28T23:51:25.789Z,8.15
2019-04-28T23:54:07.044Z,9.03
2019-04-28T23:56:49.544Z,8.43
2019-04-28T23:59:23.013Z,7.75
